Last Chance, Iowa
Current Conditions -  °F | °C
As of 5:55 AM on Saturday 01 Nov 2014 (Local Time) from KCNC Reporting Station
Overcast Overcast  
Wind Chill: 21°   Ceiling: 23000
Heat Index: 21°   Visibility: 10mi
Dew Point: 19°   Wind: 0mph
Humidity: 93%   Direction: NA
Pressure: 30.46"   Gusts: NA
Location:  40.9417°N, 93.4995°W
Report Text: KCNC 011055Z AUTO 00000KT 10SM OVC230 M06/M07 A3046 RMK AO2
Loading
Personal Weather Stations






























Interactive Weather Map
Tropical Storm Tracking
New forecast layout! Learn more

10-Day Weather Forecast

Advertisements
Track Severe Weather on mobile